createdAt,value
2019-04-30T00:00:06.209Z,11.60
2019-04-30T00:02:40.516Z,11.60
2019-04-30T00:05:14.579Z,11.50
2019-04-30T00:07:41.178Z,11.50
2019-04-30T00:10:10.714Z,11.50
2019-04-30T00:12:40.038Z,11.50
2019-04-30T00:15:10.953Z,11.50
2019-04-30T00:17:40.706Z,11.50
2019-04-30T00:20:10.755Z,11.40
2019-04-30T00:22:47.065Z,11.40
2019-04-30T00:25:11.288Z,11.40
2019-04-30T00:27:40.697Z,11.40
2019-04-30T00:30:11.052Z,11.40
2019-04-30T00:32:43.831Z,11.30
2019-04-30T00:35:15.515Z,11.40
2019-04-30T00:37:42.754Z,11.30
2019-04-30T00:40:12.568Z,11.30
2019-04-30T00:42:43.036Z,11.30
2019-04-30T00:45:12.468Z,11.30
2019-04-30T00:47:44.532Z,11.30
2019-04-30T00:50:15.987Z,11.30
2019-04-30T00:52:45.783Z,11.20
2019-04-30T00:55:15.501Z,11.20
2019-04-30T00:57:47.393Z,11.20
2019-04-30T01:00:25.359Z,11.20
2019-04-30T01:03:00.958Z,11.10
2019-04-30T01:05:28.255Z,11.10
2019-04-30T01:07:57.663Z,11.00
2019-04-30T01:10:28.401Z,11.00
2019-04-30T01:13:01.849Z,10.90
2019-04-30T01:15:29.275Z,10.90
2019-04-30T01:17:59.413Z,10.90
2019-04-30T01:20:32.670Z,10.80
2019-04-30T01:23:03.172Z,10.80
2019-04-30T01:25:32.275Z,10.80
2019-04-30T01:28:02.155Z,10.80
2019-04-30T01:30:31.749Z,10.70
2019-04-30T01:33:01.230Z,10.80
2019-04-30T01:35:32.680Z,10.80
2019-04-30T01:38:03.960Z,10.70
2019-04-30T01:40:32.774Z,10.80
2019-04-30T01:43:02.149Z,10.80
2019-04-30T01:45:31.802Z,10.80
2019-04-30T01:48:08.572Z,10.70
2019-04-30T01:50:33.738Z,10.80
2019-04-30T01:53:04.799Z,10.70
2019-04-30T01:55:45.539Z,10.70
2019-04-30T01:58:49.462Z,10.70
2019-04-30T02:01:21.374Z,10.70
2019-04-30T02:03:50.836Z,10.70
2019-04-30T02:06:20.318Z,10.70
2019-04-30T02:08:49.715Z,10.70
2019-04-30T02:11:19.170Z,10.70
2019-04-30T02:13:49.166Z,10.70
2019-04-30T02:16:21.115Z,10.70
2019-04-30T02:18:50.065Z,10.70
2019-04-30T02:21:19.674Z,10.70
2019-04-30T02:23:49.423Z,10.70
2019-04-30T02:26:18.930Z,10.70
2019-04-30T02:28:49.496Z,10.70
2019-04-30T02:31:22.730Z,10.70
2019-04-30T02:33:52.650Z,10.60
2019-04-30T02:36:43.718Z,10.60
2019-04-30T02:39:13.252Z,10.50
2019-04-30T02:41:44.646Z,10.50
2019-04-30T02:44:14.698Z,10.50
2019-04-30T02:46:46.237Z,10.50
2019-04-30T02:49:20.080Z,10.50
2019-04-30T02:51:50.118Z,10.40
2019-04-30T02:54:39.925Z,10.40
2019-04-30T02:57:13.276Z,10.40
2019-04-30T03:00:00.918Z,10.40
2019-04-30T03:02:31.548Z,10.40
2019-04-30T03:05:00.944Z,10.40
2019-04-30T03:07:30.506Z,10.40
2019-04-30T03:10:00.160Z,10.50
2019-04-30T03:12:33.171Z,10.50
2019-04-30T03:15:01.009Z,10.50
2019-04-30T03:17:50.359Z,10.60
2019-04-30T03:20:36.371Z,10.60
2019-04-30T03:23:05.460Z,10.60
2019-04-30T03:25:34.820Z,10.60
2019-04-30T03:28:04.320Z,10.60
2019-04-30T03:30:33.678Z,10.60
2019-04-30T03:33:03.313Z,10.70
2019-04-30T03:35:32.988Z,10.70
2019-04-30T03:38:02.372Z,10.70
2019-04-30T03:40:31.795Z,10.70
2019-04-30T03:43:03.162Z,10.70
2019-04-30T03:45:32.554Z,10.70
2019-04-30T03:48:03.210Z,10.80
2019-04-30T03:50:48.624Z,10.80
2019-04-30T03:53:03.745Z,10.80
2019-04-30T03:55:33.171Z,10.80
2019-04-30T03:58:02.518Z,10.80
2019-04-30T04:01:02.776Z,10.80
2019-04-30T04:03:34.584Z,10.80
2019-04-30T04:06:24.240Z,10.80
2019-04-30T04:09:00.264Z,10.70
2019-04-30T04:11:33.774Z,10.60
2019-04-30T04:14:03.290Z,10.40
2019-04-30T04:16:32.723Z,10.40
2019-04-30T04:19:02.672Z,10.30
2019-04-30T04:21:32.548Z,10.30
2019-04-30T04:24:02.018Z,10.30
2019-04-30T04:26:31.460Z,10.20
2019-04-30T04:29:00.811Z,10.20
2019-04-30T04:31:30.298Z,10.20
2019-04-30T04:34:00.267Z,10.20
2019-04-30T04:36:30.393Z,10.20
2019-04-30T04:39:00.368Z,10.30
2019-04-30T04:41:30.010Z,10.30
2019-04-30T04:44:00.176Z,10.30
2019-04-30T04:46:30.700Z,10.20
2019-04-30T04:49:00.626Z,10.20
2019-04-30T04:51:37.970Z,10.20
2019-04-30T04:54:03.337Z,10.30
2019-04-30T04:56:44.500Z,10.50
2019-04-30T04:59:13.841Z,10.80
2019-04-30T05:01:43.263Z,11.10
2019-04-30T05:04:12.624Z,11.20
2019-04-30T05:06:42.010Z,11.60
2019-04-30T05:09:11.372Z,11.90
2019-04-30T05:11:40.712Z,12.10
2019-04-30T05:14:10.941Z,12.00
2019-04-30T05:16:41.413Z,12.10
2019-04-30T05:19:10.771Z,12.30
2019-04-30T05:21:44.289Z,12.40
2019-04-30T05:24:11.186Z,12.60
2019-04-30T05:26:40.548Z,12.90
2019-04-30T05:29:09.986Z,13.10
2019-04-30T05:31:39.537Z,13.30
2019-04-30T05:34:10.318Z,13.50
2019-04-30T05:36:40.124Z,13.60
2019-04-30T05:39:09.493Z,13.80
2019-04-30T05:41:41.091Z,13.90
2019-04-30T05:44:10.038Z,14.00
2019-04-30T05:46:40.382Z,14.10
2019-04-30T05:49:09.821Z,14.10
2019-04-30T05:51:39.199Z,14.10
2019-04-30T05:54:09.076Z,14.20
2019-04-30T05:56:39.877Z,14.20
2019-04-30T05:59:09.933Z,14.20
2019-04-30T06:01:39.581Z,14.30
2019-04-30T06:04:09.549Z,14.30
2019-04-30T06:06:39.335Z,14.40
2019-04-30T06:09:28.940Z,14.40
2019-04-30T06:12:05.313Z,14.40
2019-04-30T06:14:48.930Z,14.50
2019-04-30T06:17:16.913Z,14.50
2019-04-30T06:19:46.392Z,14.50
2019-04-30T06:22:16.045Z,14.60
2019-04-30T06:24:45.499Z,14.60
2019-04-30T06:27:14.912Z,14.60
2019-04-30T06:29:44.472Z,14.60
2019-04-30T06:32:13.855Z,14.60
2019-04-30T06:34:44.369Z,14.60
2019-04-30T06:37:13.746Z,14.60
2019-04-30T06:39:43.121Z,14.70
2019-04-30T06:42:13.077Z,14.60
2019-04-30T06:44:43.197Z,14.70
2019-04-30T06:47:13.179Z,14.70
2019-04-30T06:49:42.725Z,14.70
2019-04-30T06:52:19.941Z,14.70
2019-04-30T06:54:44.203Z,14.70
2019-04-30T06:57:13.528Z,14.80
2019-04-30T06:59:42.974Z,14.80
2019-04-30T07:02:12.351Z,14.80
2019-04-30T07:04:41.795Z,14.80
2019-04-30T07:07:14.322Z,14.90
2019-04-30T07:10:00.903Z,14.90
2019-04-30T07:12:48.971Z,14.90
2019-04-30T07:15:19.684Z,14.90
2019-04-30T07:17:49.414Z,14.90
2019-04-30T07:20:19.268Z,15.00
2019-04-30T07:22:53.929Z,15.00
2019-04-30T07:25:20.040Z,15.00
2019-04-30T07:27:50.465Z,15.00
2019-04-30T07:30:20.262Z,15.10
2019-04-30T07:32:49.597Z,15.00
2019-04-30T07:35:19.712Z,15.00
2019-04-30T07:37:49.911Z,15.00
2019-04-30T07:40:19.745Z,15.00
2019-04-30T07:42:49.418Z,15.00
2019-04-30T07:45:19.613Z,15.00
2019-04-30T07:47:49.598Z,15.10
2019-04-30T07:50:21.410Z,15.10
2019-04-30T07:53:01.934Z,15.10
2019-04-30T07:55:21.480Z,15.20
2019-04-30T07:57:50.937Z,15.20
2019-04-30T08:00:20.307Z,15.20
2019-04-30T08:02:59.952Z,15.20
2019-04-30T08:05:33.909Z,15.20
2019-04-30T08:08:20.152Z,15.20
2019-04-30T08:10:34.414Z,15.20
2019-04-30T08:13:10.183Z,15.20
2019-04-30T08:15:34.927Z,15.10
2019-04-30T08:18:05.959Z,15.20
2019-04-30T08:20:35.455Z,15.20
2019-04-30T08:23:16.432Z,15.30
2019-04-30T08:25:36.061Z,15.30
2019-04-30T08:28:05.511Z,15.30
2019-04-30T08:30:34.860Z,15.30
2019-04-30T08:33:04.263Z,15.40
2019-04-30T08:35:33.607Z,15.40
2019-04-30T08:38:02.910Z,15.50
2019-04-30T08:40:32.340Z,15.50
2019-04-30T08:43:01.732Z,15.60
2019-04-30T08:45:34.431Z,15.60
2019-04-30T08:48:02.143Z,15.60
2019-04-30T08:50:31.689Z,15.60
2019-04-30T08:53:01.228Z,15.70
2019-04-30T08:55:30.637Z,15.80
2019-04-30T08:58:09.341Z,15.80
2019-04-30T09:00:31.335Z,15.90
2019-04-30T09:03:01.236Z,15.90
2019-04-30T09:05:49.933Z,16.00
2019-04-30T09:08:19.517Z,16.00
2019-04-30T09:10:49.114Z,16.10
2019-04-30T09:13:19.239Z,16.10
2019-04-30T09:15:49.226Z,16.10
2019-04-30T09:18:19.151Z,16.10
2019-04-30T09:20:49.522Z,16.20
2019-04-30T09:23:19.200Z,16.20
2019-04-30T09:25:49.702Z,16.20
2019-04-30T09:28:19.955Z,16.30
2019-04-30T09:30:49.631Z,16.40
2019-04-30T09:33:19.463Z,16.30
2019-04-30T09:35:49.608Z,16.30
2019-04-30T09:38:19.641Z,16.30
2019-04-30T09:40:50.763Z,16.30
2019-04-30T09:43:20.394Z,16.30
2019-04-30T09:45:49.895Z,16.30
2019-04-30T09:48:19.381Z,16.30
2019-04-30T09:50:49.691Z,16.30
2019-04-30T09:53:20.253Z,16.40
2019-04-30T09:55:50.035Z,16.50
2019-04-30T09:58:21.037Z,16.50
2019-04-30T10:00:50.755Z,16.60
2019-04-30T10:03:21.116Z,16.70
2019-04-30T10:05:51.648Z,16.70
2019-04-30T10:08:21.425Z,16.70
2019-04-30T10:10:59.457Z,16.80
2019-04-30T10:13:28.810Z,16.80
2019-04-30T10:16:26.005Z,16.80
2019-04-30T10:18:55.356Z,16.90
2019-04-30T10:21:24.766Z,16.90
2019-04-30T10:23:54.160Z,16.90
2019-04-30T10:26:23.666Z,16.80
2019-04-30T10:28:54.207Z,16.90
2019-04-30T10:31:23.642Z,17.00
2019-04-30T10:33:53.069Z,17.10
2019-04-30T10:36:22.656Z,17.20
2019-04-30T10:38:52.068Z,17.30
2019-04-30T10:41:21.521Z,17.40
2019-04-30T10:43:50.930Z,17.50
2019-04-30T10:46:20.403Z,17.50
2019-04-30T10:48:49.846Z,17.60
2019-04-30T10:51:19.333Z,17.70
2019-04-30T10:53:50.866Z,17.90
2019-04-30T10:56:19.799Z,18.00
2019-04-30T10:58:49.178Z,18.00
2019-04-30T11:01:19.281Z,18.00
2019-04-30T11:03:48.973Z,17.90
2019-04-30T11:06:19.181Z,17.90
2019-04-30T11:08:49.059Z,17.90
2019-04-30T11:11:18.524Z,18.00
2019-04-30T11:13:47.952Z,18.10
2019-04-30T11:16:18.878Z,18.10
2019-04-30T11:18:48.715Z,18.10
2019-04-30T11:21:19.733Z,18.10
2019-04-30T11:23:49.847Z,18.10
2019-04-30T11:26:20.021Z,18.10
2019-04-30T11:28:49.926Z,18.00
2019-04-30T11:31:50.814Z,18.00
2019-04-30T11:34:20.616Z,17.90
2019-04-30T11:36:50.144Z,17.90
2019-04-30T11:39:21.600Z,17.90
2019-04-30T11:41:51.018Z,17.90
2019-04-30T11:44:30.331Z,17.80
2019-04-30T11:47:34.100Z,17.80
2019-04-30T11:50:04.350Z,17.80
2019-04-30T11:52:33.794Z,17.90
2019-04-30T11:55:03.252Z,17.90
2019-04-30T11:57:32.658Z,17.90
2019-04-30T12:00:01.994Z,17.80
2019-04-30T12:02:39.347Z,17.80
2019-04-30T12:05:11.997Z,17.80
2019-04-30T12:08:00.371Z,17.80
2019-04-30T12:10:43.544Z,17.80
2019-04-30T12:13:29.860Z,17.80
2019-04-30T12:15:59.818Z,18.00
2019-04-30T12:18:29.594Z,18.00
2019-04-30T12:20:58.977Z,18.00
2019-04-30T12:23:28.404Z,18.00
2019-04-30T12:26:01.028Z,18.00
2019-04-30T12:28:29.666Z,18.10
2019-04-30T12:30:59.375Z,18.00
2019-04-30T12:33:28.808Z,18.10
2019-04-30T12:35:59.579Z,18.10
2019-04-30T12:38:29.843Z,18.10
2019-04-30T12:41:00.397Z,18.10
2019-04-30T12:43:29.804Z,18.10
2019-04-30T12:46:03.443Z,18.20
2019-04-30T12:48:37.092Z,18.20
2019-04-30T12:51:45.519Z,18.10
2019-04-30T12:54:23.989Z,18.20
2019-04-30T12:57:19.124Z,18.10
2019-04-30T12:59:48.252Z,18.20
2019-04-30T13:02:19.127Z,18.30
2019-04-30T13:04:49.294Z,18.30
2019-04-30T13:07:20.662Z,18.30
2019-04-30T13:09:50.667Z,18.40
2019-04-30T13:12:21.149Z,18.40
2019-04-30T13:14:54.382Z,18.40
2019-04-30T13:17:21.969Z,18.30
2019-04-30T13:19:51.383Z,18.40
2019-04-30T13:22:20.889Z,18.30
2019-04-30T13:24:50.381Z,18.40
2019-04-30T13:27:22.358Z,18.40
2019-04-30T13:30:09.882Z,18.40
2019-04-30T13:32:45.619Z,18.50
2019-04-30T13:35:15.102Z,18.50
2019-04-30T13:37:50.539Z,18.60
2019-04-30T13:40:41.920Z,18.70
2019-04-30T13:43:11.292Z,18.90
2019-04-30T13:45:40.631Z,19.00
2019-04-30T13:48:10.065Z,19.00
2019-04-30T13:50:39.445Z,19.10
2019-04-30T13:53:09.994Z,19.20
2019-04-30T13:55:45.653Z,19.20
2019-04-30T13:58:10.446Z,19.30
2019-04-30T14:00:39.868Z,19.30
2019-04-30T14:03:20.080Z,19.20
2019-04-30T14:05:51.616Z,19.20
2019-04-30T14:08:26.166Z,19.30
2019-04-30T14:10:55.511Z,19.20
2019-04-30T14:13:26.553Z,19.20
2019-04-30T14:15:55.964Z,19.20
2019-04-30T14:18:30.623Z,19.20
2019-04-30T14:20:56.474Z,19.20
2019-04-30T14:23:25.913Z,19.10
2019-04-30T14:25:56.639Z,19.10
2019-04-30T14:28:26.415Z,19.00
2019-04-30T14:30:55.767Z,19.00
2019-04-30T14:33:26.749Z,19.00
2019-04-30T14:35:56.351Z,19.00
2019-04-30T14:38:25.769Z,19.00
2019-04-30T14:40:55.612Z,19.00
2019-04-30T14:43:44.798Z,19.00
2019-04-30T14:46:31.658Z,18.90
2019-04-30T14:49:24.388Z,18.90
2019-04-30T14:51:54.612Z,19.00
2019-04-30T14:54:58.855Z,19.00
2019-04-30T14:57:59.663Z,19.00
2019-04-30T15:00:53.873Z,19.00
2019-04-30T15:03:24.563Z,18.90
2019-04-30T15:05:53.965Z,18.90
2019-04-30T15:08:23.335Z,18.90
2019-04-30T15:10:52.789Z,18.90
2019-04-30T15:13:22.145Z,18.90
2019-04-30T15:15:51.483Z,18.90
2019-04-30T15:18:20.947Z,18.90
2019-04-30T15:20:50.326Z,18.90
2019-04-30T15:23:28.382Z,18.80
2019-04-30T15:25:58.681Z,18.90
2019-04-30T15:28:32.187Z,18.80
2019-04-30T15:30:59.369Z,18.80
2019-04-30T15:33:47.693Z,18.80
2019-04-30T15:36:19.246Z,18.80
2019-04-30T15:39:02.149Z,18.80
2019-04-30T15:41:31.967Z,18.80
2019-04-30T15:44:01.320Z,18.80
2019-04-30T15:46:30.795Z,18.80
2019-04-30T15:49:00.233Z,18.80
2019-04-30T15:51:29.700Z,18.80
2019-04-30T15:53:59.178Z,18.90
2019-04-30T15:56:35.230Z,18.80
2019-04-30T15:59:16.739Z,18.80
2019-04-30T16:01:49.992Z,18.80
2019-04-30T16:04:24.657Z,18.80
2019-04-30T16:06:54.030Z,18.80
2019-04-30T16:09:29.288Z,18.80
2019-04-30T16:12:08.037Z,18.80
2019-04-30T16:14:38.408Z,18.70
2019-04-30T16:17:23.712Z,18.70
2019-04-30T16:19:53.160Z,18.70
2019-04-30T16:22:22.534Z,18.70
2019-04-30T16:24:54.471Z,18.70
2019-04-30T16:27:22.989Z,18.70
2019-04-30T16:29:52.335Z,18.70
2019-04-30T16:32:22.735Z,18.70
2019-04-30T16:34:52.123Z,18.70
2019-04-30T16:37:21.533Z,18.70
2019-04-30T16:39:50.899Z,18.70
2019-04-30T16:42:20.360Z,18.60
2019-04-30T16:44:49.751Z,18.60
2019-04-30T16:47:19.927Z,18.60
2019-04-30T16:49:49.759Z,18.60
2019-04-30T16:52:19.178Z,18.60
2019-04-30T16:54:49.733Z,18.60
2019-04-30T16:57:20.496Z,18.60
2019-04-30T16:59:51.011Z,18.60
2019-04-30T17:02:22.863Z,18.50
2019-04-30T17:05:17.091Z,18.50
2019-04-30T17:08:11.456Z,18.40
2019-04-30T17:10:52.895Z,18.40
2019-04-30T17:13:59.240Z,18.30
2019-04-30T17:16:30.182Z,18.30
2019-04-30T17:18:59.744Z,18.30
2019-04-30T17:21:29.665Z,18.20
2019-04-30T17:23:59.354Z,18.20
2019-04-30T17:26:28.700Z,18.20
2019-04-30T17:28:59.851Z,18.20
2019-04-30T17:31:29.395Z,18.30
2019-04-30T17:33:58.809Z,18.30
2019-04-30T17:36:29.787Z,18.30
2019-04-30T17:38:59.425Z,18.40
2019-04-30T17:41:28.901Z,18.40
2019-04-30T17:43:58.965Z,18.40
2019-04-30T17:46:28.981Z,18.40
2019-04-30T17:48:59.299Z,18.40
2019-04-30T17:51:28.992Z,18.40
2019-04-30T17:54:13.355Z,18.40
2019-04-30T17:56:43.584Z,18.30
2019-04-30T17:59:14.074Z,18.30
2019-04-30T18:01:49.508Z,18.30
2019-04-30T18:04:21.841Z,18.20
2019-04-30T18:06:50.663Z,18.20
2019-04-30T18:09:22.394Z,18.10
2019-04-30T18:11:51.802Z,18.10
2019-04-30T18:14:21.127Z,18.00
2019-04-30T18:16:50.500Z,17.90
2019-04-30T18:19:29.268Z,17.90
2019-04-30T18:22:03.288Z,17.80
2019-04-30T18:25:00.642Z,17.70
2019-04-30T18:27:43.863Z,17.60
2019-04-30T18:30:12.637Z,17.50
2019-04-30T18:32:42.063Z,17.50
2019-04-30T18:35:11.462Z,17.40
2019-04-30T18:37:40.854Z,17.30
2019-04-30T18:40:10.487Z,17.30
2019-04-30T18:42:39.854Z,17.20
2019-04-30T18:45:11.492Z,17.20
2019-04-30T18:47:40.842Z,17.10
2019-04-30T18:50:10.375Z,17.10
2019-04-30T18:52:40.368Z,17.10
2019-04-30T18:55:10.245Z,17.00
2019-04-30T18:57:39.562Z,17.00
2019-04-30T19:00:10.037Z,17.00
2019-04-30T19:02:40.498Z,17.00
2019-04-30T19:05:14.208Z,16.90
2019-04-30T19:07:54.712Z,16.90
2019-04-30T19:10:46.846Z,16.90
2019-04-30T19:13:33.875Z,16.80
2019-04-30T19:16:25.239Z,16.80
2019-04-30T19:18:59.258Z,16.70
2019-04-30T19:21:29.715Z,16.70
2019-04-30T19:23:59.043Z,16.60
2019-04-30T19:26:29.323Z,16.60
2019-04-30T19:28:59.075Z,16.50
2019-04-30T19:31:29.620Z,16.50
2019-04-30T19:33:59.170Z,16.50
2019-04-30T19:36:37.238Z,16.40
2019-04-30T19:38:59.812Z,16.40
2019-04-30T19:41:29.503Z,16.30
2019-04-30T19:43:58.933Z,16.30
2019-04-30T19:46:29.416Z,16.30
2019-04-30T19:48:58.975Z,16.20
2019-04-30T19:51:29.631Z,16.20
2019-04-30T19:53:59.888Z,16.20
2019-04-30T19:56:32.609Z,16.10
2019-04-30T19:59:05.254Z,16.20
2019-04-30T20:01:31.776Z,16.10
2019-04-30T20:04:01.153Z,16.10
2019-04-30T20:06:30.599Z,16.10
2019-04-30T20:09:00.826Z,16.00
2019-04-30T20:11:30.355Z,16.00
2019-04-30T20:13:59.827Z,16.00
2019-04-30T20:16:29.247Z,16.00
2019-04-30T20:18:59.193Z,15.90
2019-04-30T20:21:44.955Z,15.90
2019-04-30T20:23:59.863Z,15.90
2019-04-30T20:26:29.325Z,15.90
2019-04-30T20:28:59.133Z,15.90
2019-04-30T20:31:28.897Z,15.80
2019-04-30T20:33:59.407Z,15.80
2019-04-30T20:36:29.430Z,15.80
2019-04-30T20:39:17.791Z,15.80
2019-04-30T20:41:51.095Z,15.70
2019-04-30T20:44:20.464Z,15.70
2019-04-30T20:46:49.776Z,15.70
2019-04-30T20:49:19.330Z,15.70
2019-04-30T20:51:55.624Z,15.70
2019-04-30T20:54:19.904Z,15.70
2019-04-30T20:56:51.059Z,15.60
2019-04-30T20:59:20.318Z,15.60
2019-04-30T21:01:49.711Z,15.60
2019-04-30T21:04:20.832Z,15.60
2019-04-30T21:06:50.294Z,15.60
2019-04-30T21:09:19.642Z,15.60
2019-04-30T21:11:49.082Z,15.60
2019-04-30T21:14:19.240Z,15.60
2019-04-30T21:16:48.989Z,15.60
2019-04-30T21:19:18.452Z,15.60
2019-04-30T21:21:49.695Z,15.60
2019-04-30T21:24:19.391Z,15.60
2019-04-30T21:26:48.816Z,15.60
2019-04-30T21:29:18.891Z,15.60
2019-04-30T21:32:21.393Z,15.60
2019-04-30T21:35:15.504Z,15.60
2019-04-30T21:37:44.928Z,15.60
2019-04-30T21:40:14.470Z,15.60
2019-04-30T21:42:43.843Z,15.60
2019-04-30T21:45:13.416Z,15.60
2019-04-30T21:47:55.624Z,15.60
2019-04-30T21:50:13.994Z,15.60
2019-04-30T21:52:43.353Z,15.60
2019-04-30T21:55:12.741Z,15.50
2019-04-30T21:57:42.441Z,15.50
2019-04-30T22:00:14.446Z,15.50
2019-04-30T22:02:43.891Z,15.50
2019-04-30T22:05:13.384Z,15.50
2019-04-30T22:07:42.735Z,15.50
2019-04-30T22:10:12.092Z,15.50
2019-04-30T22:12:41.452Z,15.40
2019-04-30T22:15:14.295Z,15.40
2019-04-30T22:17:43.648Z,15.40
2019-04-30T22:20:13.000Z,15.40
2019-04-30T22:22:42.362Z,15.40
2019-04-30T22:25:11.759Z,15.40
2019-04-30T22:27:41.108Z,15.30
2019-04-30T22:30:10.864Z,15.30
2019-04-30T22:32:41.139Z,15.30
2019-04-30T22:35:38.360Z,15.20
2019-04-30T22:38:09.359Z,15.20
2019-04-30T22:40:39.251Z,15.20
2019-04-30T22:43:09.368Z,15.20
2019-04-30T22:45:44.727Z,15.20
2019-04-30T22:48:14.093Z,15.10
2019-04-30T22:50:43.436Z,15.10
2019-04-30T22:53:12.824Z,15.10
2019-04-30T22:55:42.298Z,15.10
2019-04-30T22:58:11.716Z,15.10
2019-04-30T23:00:43.961Z,15.10
2019-04-30T23:03:22.519Z,15.10
2019-04-30T23:05:51.965Z,15.10
2019-04-30T23:08:21.370Z,15.10
2019-04-30T23:10:50.755Z,15.10
2019-04-30T23:13:20.217Z,15.10
2019-04-30T23:15:53.271Z,15.10
2019-04-30T23:18:22.612Z,15.10
2019-04-30T23:20:52.090Z,15.10
2019-04-30T23:23:21.836Z,15.00
2019-04-30T23:25:51.267Z,15.00
2019-04-30T23:28:20.617Z,15.00
2019-04-30T23:30:49.982Z,15.00
2019-04-30T23:33:19.441Z,15.00
2019-04-30T23:35:48.840Z,15.00
2019-04-30T23:38:18.315Z,14.90
2019-04-30T23:40:50.637Z,14.90
2019-04-30T23:43:21.082Z,14.90
2019-04-30T23:45:50.531Z,14.90
2019-04-30T23:48:19.926Z,14.90
2019-04-30T23:50:49.352Z,14.80
2019-04-30T23:53:18.733Z,14.80
2019-04-30T23:55:48.083Z,14.80
2019-04-30T23:58:17.475Z,14.80
